Time;durP1;ratioP1;P1;durP2;ratioP2;P2;SDS_P1;SDS_P2;PMS_P1;PMS_P2;Temp;Humidity;BMP_temperature;BMP_pressure;BME280_temperature;BME280_humidity;BME280_pressure;Samples;Min_cycle;Max_cycle;Signal;HPM_P1;HPM_P2
2023/09/20 00:01:03;;;;;;;3.28;2.50;;;;;;;11.38;100.00;98232.50;2588918;28;20490;-89
2023/09/20 00:02:23;;;;;;;2.78;2.10;;;;;;;11.35;100.00;98227.38;2587950;28;20092;-88
2023/09/20 00:03:39;;;;;;;5.18;2.00;;;;;;;11.20;100.00;98228.75;2588112;28;20049;-88
2023/09/20 00:04:54;;;;;;;4.38;2.28;;;;;;;11.32;100.00;98232.75;2588510;28;20492;-89
2023/09/20 00:06:10;;;;;;;2.65;1.90;;;;;;;11.19;100.00;98232.28;2588735;28;20200;-88
2023/09/20 00:07:26;;;;;;;2.67;2.10;;;;;;;11.17;100.00;98228.88;2587807;28;20056;-88
2023/09/20 00:08:42;;;;;;;2.25;2.08;;;;;;;11.15;100.00;98236.75;2587833;28;20918;-88
2023/09/20 00:09:57;;;;;;;3.55;2.28;;;;;;;11.11;100.00;98237.78;2588795;28;20061;-89
2023/09/20 00:11:15;;;;;;;5.32;2.55;;;;;;;11.11;100.00;98240.41;2588514;28;20559;-88
2023/09/20 00:12:31;;;;;;;3.33;2.20;;;;;;;11.10;100.00;98240.44;2588802;28;20050;-88
2023/09/20 00:13:46;;;;;;;3.72;2.03;;;;;;;11.14;100.00;98245.53;2587590;28;20522;-89
2023/09/20 00:15:02;;;;;;;3.33;2.20;;;;;;;11.20;100.00;98247.09;2588571;28;20049;-89
2023/09/20 00:16:18;;;;;;;6.53;3.42;;;;;;;11.18;100.00;98248.06;2588663;28;20212;-88
2023/09/20 00:17:34;;;;;;;2.88;2.20;;;;;;;11.12;100.00;98242.13;2588282;28;20520;-89
2023/09/20 00:18:50;;;;;;;3.15;2.55;;;;;;;11.09;100.00;98251.84;2588037;28;20045;-88
2023/09/20 00:20:13;;;;;;;2.90;2.47;;;;;;;11.12;100.00;98249.97;2588050;28;20409;-89
2023/09/20 00:21:29;;;;;;;5.90;2.60;;;;;;;10.98;100.00;98250.44;2588601;28;20053;-89
2023/09/20 00:22:45;;;;;;;2.90;2.10;;;;;;;11.07;100.00;98241.44;2587849;28;20050;-89
2023/09/20 00:24:04;;;;;;;3.63;2.20;;;;;;;11.06;100.00;98242.34;2588131;28;20129;-88
2023/09/20 00:25:20;;;;;;;3.67;2.15;;;;;;;11.06;100.00;98247.56;2607935;28;20065;-88
2023/09/20 00:26:36;;;;;;;4.32;2.30;;;;;;;11.16;100.00;98243.72;2600308;28;20046;-88
2023/09/20 00:27:51;;;;;;;2.85;2.05;;;;;;;11.16;100.00;98246.34;2588487;28;20049;-88
2023/09/20 00:29:08;;;;;;;4.65;2.20;;;;;;;11.22;100.00;98242.66;2587634;28;20130;-88
2023/09/20 00:30:24;;;;;;;3.75;2.10;;;;;;;11.28;100.00;98244.22;2588171;28;20463;-89
2023/09/20 00:31:39;;;;;;;2.30;2.00;;;;;;;11.26;100.00;98249.53;2588396;28;20053;-88
2023/09/20 00:32:55;;;;;;;3.13;2.03;;;;;;;11.29;100.00;98243.31;2588604;28;20490;-88
2023/09/20 00:34:10;;;;;;;2.72;2.40;;;;;;;11.19;100.00;98240.16;2588193;28;20096;-88
2023/09/20 00:35:26;;;;;;;3.55;2.70;;;;;;;11.18;100.00;98241.06;2588464;28;20048;-88
2023/09/20 00:36:41;;;;;;;3.03;2.20;;;;;;;11.09;100.00;98236.97;2588605;28;20050;-88
2023/09/20 00:37:57;;;;;;;2.55;1.98;;;;;;;11.09;100.00;98234.38;2588330;28;20049;-88
2023/09/20 00:39:14;;;;;;;2.97;2.10;;;;;;;11.04;100.00;98236.28;2588369;28;20149;-88
2023/09/20 00:40:32;;;;;;;2.78;2.22;;;;;;;11.01;100.00;98246.84;2588453;28;20050;-88
2023/09/20 00:41:49;;;;;;;2.10;1.90;;;;;;;10.96;100.00;98240.91;2588138;28;20085;-88
2023/09/20 00:43:07;;;;;;;2.85;2.00;;;;;;;10.91;100.00;98234.97;2588471;28;20192;-88
2023/09/20 00:44:25;;;;;;;4.60;2.30;;;;;;;10.84;100.00;98234.31;2588155;28;20080;-88
2023/09/20 00:45:41;;;;;;;2.95;2.17;;;;;;;10.82;100.00;98231.75;2588365;28;20085;-88
2023/09/20 00:46:56;;;;;;;2.53;2.20;;;;;;;10.86;100.00;98228.13;2588077;28;20049;-88
2023/09/20 00:48:13;;;;;;;4.20;2.08;;;;;;;10.85;100.00;98236.88;2588144;28;20560;-88
2023/09/20 00:49:29;;;;;;;3.25;2.40;;;;;;;10.83;100.00;98232.63;2588356;28;20125;-88
2023/09/20 00:50:45;;;;;;;3.40;1.83;;;;;;;10.82;100.00;98230.88;2588353;28;20136;-88
2023/09/20 00:52:03;;;;;;;2.58;2.05;;;;;;;10.85;100.00;98231.63;2588205;28;20061;-88
2023/09/20 00:53:20;;;;;;;3.47;2.47;;;;;;;10.91;100.00;98237.59;2588405;28;20050;-89
2023/09/20 00:54:36;;;;;;;2.88;2.40;;;;;;;10.90;100.00;98235.88;2588099;28;20136;-88
2023/09/20 00:55:51;;;;;;;2.63;2.22;;;;;;;10.87;100.00;98232.44;2587537;28;20046;-89
2023/09/20 00:57:09;;;;;;;4.10;2.22;;;;;;;10.78;100.00;98230.16;2587796;28;21023;-88
2023/09/20 00:58:25;;;;;;;3.10;2.40;;;;;;;10.73;100.00;98238.13;2588229;28;20073;-89
2023/09/20 00:59:42;;;;;;;2.72;2.30;;;;;;;10.79;100.00;98242.31;2588222;28;20048;-88
2023/09/20 01:00:57;;;;;;;2.80;2.25;;;;;;;10.78;100.00;98232.75;2588542;28;20180;-88
2023/09/20 01:02:14;;;;;;;3.70;2.25;;;;;;;10.67;100.00;98233.09;2588118;28;20100;-88
2023/09/20 01:03:32;;;;;;;2.40;2.10;;;;;;;10.76;100.00;98231.97;2588366;28;20076;-88
2023/09/20 01:04:49;;;;;;;3.70;2.42;;;;;;;10.71;100.00;98234.72;2588283;28;20125;-88
2023/09/20 01:06:08;;;;;;;3.38;2.13;;;;;;;10.76;100.00;98231.97;2588333;28;20100;-88
2023/09/20 01:07:24;;;;;;;3.95;2.25;;;;;;;10.70;100.00;98232.13;2580883;28;20060;-88
2023/09/20 01:08:41;;;;;;;2.47;1.92;;;;;;;10.74;100.00;98231.13;2583675;28;20053;-88
2023/09/20 01:09:57;;;;;;;2.80;2.05;;;;;;;10.73;100.00;98232.03;2588229;28;20152;-88
2023/09/20 01:11:13;;;;;;;3.05;2.08;;;;;;;10.70;100.00;98237.38;2588178;28;20050;-88
2023/09/20 01:12:29;;;;;;;4.60;2.40;;;;;;;10.75;100.00;98238.06;2588194;28;20514;-88
2023/09/20 01:13:46;;;;;;;2.47;1.90;;;;;;;10.73;100.00;98239.88;2588361;28;20489;-88
2023/09/20 01:15:03;;;;;;;2.00;1.70;;;;;;;10.77;100.00;98244.16;2587988;28;20477;-89
2023/09/20 01:16:19;;;;;;;3.08;2.05;;;;;;;10.79;100.00;98246.69;2588364;28;20046;-88
2023/09/20 01:17:44;;;;;;;3.80;1.95;;;;;;;10.80;100.00;98233.56;2588309;28;20046;-88
2023/09/20 01:19:00;;;;;;;2.65;1.80;;;;;;;10.73;100.00;98234.66;2588163;28;20046;-88
2023/09/20 01:20:19;;;;;;;3.08;2.00;;;;;;;10.71;100.00;98232.09;2588254;28;20110;-88
2023/09/20 01:21:43;;;;;;;3.72;2.13;;;;;;;10.75;100.00;98232.84;2588121;28;20053;-89
2023/09/20 01:22:59;;;;;;;2.92;1.88;;;;;;;10.73;100.00;98235.53;2588401;28;20147;-88
2023/09/20 01:24:19;;;;;;;2.25;1.90;;;;;;;10.77;100.00;98236.28;2587936;28;20085;-88
2023/09/20 01:25:39;;;;;;;2.05;1.65;;;;;;;10.66;100.00;98231.38;2589093;28;20141;-88
2023/09/20 01:26:57;;;;;;;3.05;2.17;;;;;;;10.57;100.00;98229.91;2590137;28;20049;-88
2023/09/20 01:28:13;;;;;;;3.65;1.98;;;;;;;10.55;100.00;98229.09;2589972;28;20120;-88
2023/09/20 01:29:29;;;;;;;2.90;1.92;;;;;;;10.75;100.00;98227.59;2590157;28;20057;-88
2023/09/20 01:30:50;;;;;;;3.08;1.90;;;;;;;10.72;100.00;98228.56;2590033;28;20982;-88
2023/09/20 01:32:05;;;;;;;2.22;1.90;;;;;;;10.70;100.00;98227.78;2590014;28;20077;-89
2023/09/20 01:33:21;;;;;;;3.42;2.45;;;;;;;10.71;100.00;98233.84;2590115;28;20460;-88
2023/09/20 01:34:37;;;;;;;3.75;2.15;;;;;;;10.71;100.00;98228.63;2589944;28;20131;-89
2023/09/20 01:35:54;;;;;;;3.72;2.05;;;;;;;10.66;100.00;98226.13;2589716;28;21171;-88
2023/09/20 01:37:10;;;;;;;2.72;1.95;;;;;;;10.58;100.00;98231.63;2590099;28;20042;-88
2023/09/20 01:38:26;;;;;;;4.38;2.20;;;;;;;10.66;100.00;98230.53;2589939;28;20058;-88
2023/09/20 01:39:41;;;;;;;3.92;2.20;;;;;;;10.65;100.00;98226.19;2589779;28;20407;-88
2023/09/20 01:40:58;;;;;;;2.65;1.90;;;;;;;10.60;100.00;98227.19;2590111;28;20559;-88
2023/09/20 01:42:15;;;;;;;2.97;2.00;;;;;;;10.59;100.00;98230.72;2589956;28;20057;-88
2023/09/20 01:43:30;;;;;;;2.60;2.10;;;;;;;10.59;100.00;98228.09;2589987;28;20050;-88
2023/09/20 01:44:46;;;;;;;3.90;2.13;;;;;;;10.58;100.00;98225.53;2589927;28;20133;-88
2023/09/20 01:46:03;;;;;;;3.90;2.10;;;;;;;10.51;100.00;98224.88;2589519;28;20121;-89
2023/09/20 01:47:18;;;;;;;2.97;2.25;;;;;;;10.52;100.00;98223.97;2589858;28;20050;-89
2023/09/20 01:48:34;;;;;;;2.75;2.15;;;;;;;10.62;100.00;98223.69;2589933;28;20057;-88
2023/09/20 01:49:49;;;;;;;2.70;2.00;;;;;;;10.66;100.00;98225.28;2589892;28;20085;-88
2023/09/20 01:51:05;;;;;;;2.90;2.13;;;;;;;10.70;100.00;98225.16;2589883;28;20128;-88
2023/09/20 01:52:21;;;;;;;2.63;2.15;;;;;;;10.65;100.00;98220.97;2588821;28;20428;-88
2023/09/20 01:53:36;;;;;;;5.25;2.22;;;;;;;10.68;100.00;98226.09;2589523;28;20119;-88
2023/09/20 01:54:55;;;;;;;3.03;2.00;;;;;;;10.64;100.00;98225.31;2589866;28;20061;-88
2023/09/20 01:56:10;;;;;;;3.70;2.10;;;;;;;10.60;100.00;98226.34;2589709;28;20148;-88
2023/09/20 01:57:26;;;;;;;2.42;1.90;;;;;;;10.63;100.00;98235.88;2589124;28;20046;-88
2023/09/20 01:58:44;;;;;;;3.30;2.20;;;;;;;10.63;100.00;98230.63;2589267;28;20045;-88
2023/09/20 02:00:00;;;;;;;3.00;2.10;;;;;;;10.62;100.00;98228.94;2589736;28;20128;-88
2023/09/20 02:01:18;;;;;;;2.55;1.85;;;;;;;10.65;100.00;98232.28;2589816;28;20042;-89
2023/09/20 02:02:34;;;;;;;3.53;2.17;;;;;;;10.59;100.00;98227.25;2588973;28;20046;-88
2023/09/20 02:03:50;;;;;;;5.43;2.20;;;;;;;10.52;100.00;98223.97;2589355;28;20042;-88
2023/09/20 02:05:09;;;;;;;3.10;2.00;;;;;;;10.54;100.00;98227.38;2589708;28;20073;-89
2023/09/20 02:06:26;;;;;;;3.42;2.17;;;;;;;10.47;100.00;98219.78;2589376;28;20068;-89
2023/09/20 02:07:41;;;;;;;4.03;2.20;;;;;;;10.41;100.00;98232.16;2589818;28;20053;-88
2023/09/20 02:08:57;;;;;;;2.45;1.98;;;;;;;10.42;100.00;98227.78;2589608;28;20053;-88
2023/09/20 02:10:14;;;;;;;2.47;2.10;;;;;;;10.38;100.00;98223.50;2589532;28;20041;-88
2023/09/20 02:11:30;;;;;;;2.10;1.88;;;;;;;10.34;100.00;98221.88;2589639;28;20054;-88
2023/09/20 02:12:47;;;;;;;3.40;1.83;;;;;;;10.32;100.00;98224.56;2589557;28;20515;-88
2023/09/20 02:14:02;;;;;;;2.13;1.88;;;;;;;10.29;100.00;98222.88;2589711;28;20053;-88
2023/09/20 02:15:18;;;;;;;2.13;1.70;;;;;;;10.28;100.00;98225.56;2588795;28;20054;-88
2023/09/20 02:16:34;;;;;;;3.85;2.22;;;;;;;10.24;100.00;98222.16;2588899;28;20046;-89
2023/09/20 02:17:50;;;;;;;2.53;2.10;;;;;;;10.21;100.00;98224.00;2589526;28;20188;-88
2023/09/20 02:19:08;;;;;;;3.42;1.70;;;;;;;10.27;100.00;98222.06;2589415;28;20129;-88
2023/09/20 02:20:25;;;;;;;2.38;1.90;;;;;;;10.29;100.00;98222.88;2589743;28;20516;-90
2023/09/20 02:21:40;;;;;;;2.22;2.00;;;;;;;10.32;100.00;98232.41;2589703;28;20420;-88
2023/09/20 02:22:56;;;;;;;2.50;2.00;;;;;;;10.34;100.00;98232.34;2589686;28;20061;-88
2023/09/20 02:24:11;;;;;;;2.38;1.90;;;;;;;10.35;100.00;98231.47;2589635;28;20050;-88
2023/09/20 02:25:28;;;;;;;3.17;1.80;;;;;;;10.28;100.00;98231.63;2589359;28;20073;-88
2023/09/20 02:26:48;;;;;;;3.38;1.95;;;;;;;10.27;100.00;98229.91;2589613;28;20342;-88
2023/09/20 02:28:04;;;;;;;2.72;2.03;;;;;;;10.25;100.00;98233.47;2589796;28;20541;-88
2023/09/20 02:29:22;;;;;;;2.60;1.80;;;;;;;10.26;100.00;98236.06;2589042;28;20057;-88
2023/09/20 02:30:39;;;;;;;2.55;1.65;;;;;;;10.26;100.00;98233.44;2589286;28;20061;-88
2023/09/20 02:31:54;;;;;;;4.38;1.85;;;;;;;10.23;100.00;98236.16;2589428;28;20049;-88
2023/09/20 02:33:14;;;;;;;2.70;1.55;;;;;;;10.16;100.00;98229.38;2589166;28;20049;-89
2023/09/20 02:34:30;;;;;;;1.80;1.50;;;;;;;10.16;100.00;98237.22;2589592;28;20096;-88
2023/09/20 02:35:45;;;;;;;4.75;1.98;;;;;;;10.17;100.00;98226.72;2588603;28;20077;-88
2023/09/20 02:37:01;;;;;;;2.75;1.70;;;;;;;10.20;100.00;98228.41;2587973;28;20544;-88
2023/09/20 02:38:16;;;;;;;3.05;1.80;;;;;;;10.13;100.00;98222.50;2589342;28;20054;-88
2023/09/20 02:39:32;;;;;;;3.10;2.05;;;;;;;10.24;100.00;98230.03;2589088;28;20061;-88
2023/09/20 02:40:50;;;;;;;2.92;1.80;;;;;;;10.30;100.00;98229.81;2589313;28;20092;-88
2023/09/20 02:42:06;;;;;;;4.10;1.63;;;;;;;10.32;100.00;98230.63;2589620;28;20056;-88
2023/09/20 02:43:21;;;;;;;3.65;2.00;;;;;;;10.32;100.00;98230.63;2588993;28;20157;-88
2023/09/20 02:44:38;;;;;;;4.88;2.13;;;;;;;10.26;100.00;98230.81;2589286;28;20042;-88
2023/09/20 02:45:54;;;;;;;3.45;2.05;;;;;;;10.26;100.00;98229.94;2589283;28;20134;-88
2023/09/20 02:47:09;;;;;;;2.85;2.00;;;;;;;10.26;100.00;98235.19;2589108;28;20414;-88
2023/09/20 02:48:26;;;;;;;3.75;2.05;;;;;;;10.24;100.00;98232.63;2589277;28;20049;-89
2023/09/20 02:49:41;;;;;;;3.00;1.90;;;;;;;10.20;100.00;98227.53;2589197;28;20053;-88
2023/09/20 02:50:58;;;;;;;2.42;1.80;;;;;;;10.23;100.00;98232.66;2589292;28;20128;-88
2023/09/20 02:52:17;;;;;;;3.20;1.80;;;;;;;10.25;100.00;98234.34;2589280;28;20600;-88
2023/09/20 02:53:34;;;;;;;2.28;2.00;;;;;;;10.24;100.00;98231.75;2589188;28;20053;-88
2023/09/20 02:54:51;;;;;;;2.20;2.00;;;;;;;10.25;100.00;98236.97;2589224;28;20129;-88
2023/09/20 02:56:08;;;;;;;2.50;2.00;;;;;;;10.28;100.00;98234.25;2589212;28;20073;-88
2023/09/20 02:57:24;;;;;;;2.63;2.00;;;;;;;10.29;100.00;98224.66;2589489;28;20053;-88
2023/09/20 02:58:39;;;;;;;2.03;1.80;;;;;;;10.29;100.00;98232.50;2589302;28;20050;-88
2023/09/20 02:59:55;;;;;;;2.63;2.08;;;;;;;10.28;100.00;98234.25;2588807;28;20053;-88
2023/09/20 03:01:15;;;;;;;3.85;2.28;;;;;;;10.27;100.00;98234.31;2588993;28;20045;-88
2023/09/20 03:02:31;;;;;;;2.53;2.13;;;;;;;10.15;100.00;98227.66;2589264;28;20065;-88
2023/09/20 03:03:46;;;;;;;2.10;1.90;;;;;;;10.11;100.00;98223.44;2588951;28;20046;-88
2023/09/20 03:05:03;;;;;;;3.67;1.83;;;;;;;10.03;100.00;98229.72;2589119;28;20482;-87
2023/09/20 03:06:18;;;;;;;2.42;1.80;;;;;;;10.03;100.00;98227.13;2589224;28;20514;-88
2023/09/20 03:07:34;;;;;;;4.28;1.95;;;;;;;9.97;100.00;98223.81;2589089;28;20068;-88
2023/09/20 03:08:51;;;;;;;4.63;1.85;;;;;;;10.01;100.00;98226.31;2589258;28;20050;-88
2023/09/20 03:10:09;;;;;;;3.33;1.95;;;;;;;9.97;100.00;98226.44;2588951;28;20136;-88
2023/09/20 03:11:26;;;;;;;3.08;1.85;;;;;;;9.93;100.00;98220.47;2589055;28;20057;-88
2023/09/20 03:12:44;;;;;;;3.25;1.98;;;;;;;9.93;100.00;98216.97;2589217;28;20493;-88
2023/09/20 03:14:03;;;;;;;3.35;2.20;;;;;;;9.89;100.00;98224.03;2588944;28;20076;-88
2023/09/20 03:15:21;;;;;;;2.65;2.15;;;;;;;9.91;100.00;98226.63;2589064;28;20430;-88
2023/09/20 03:16:37;;;;;;;2.15;1.88;;;;;;;9.96;100.00;98232.56;2589001;28;20557;-88
2023/09/20 03:18:06;;;;;;;3.67;2.03;;;;;;;10.01;100.00;98235.94;2588188;28;20132;-88
2023/09/20 03:19:22;;;;;;;2.08;1.77;;;;;;;9.95;100.00;98226.50;2593932;28;20068;-88
2023/09/20 03:20:38;;;;;;;3.63;2.10;;;;;;;9.92;100.00;98228.34;2594251;28;20045;-88
2023/09/20 03:21:54;;;;;;;2.72;2.08;;;;;;;9.85;100.00;98227.66;2589202;28;20052;-88
2023/09/20 03:23:10;;;;;;;5.15;1.85;;;;;;;9.86;100.00;98226.75;2589022;28;20733;-88
2023/09/20 03:24:29;;;;;;;2.88;1.90;;;;;;;9.82;100.00;98232.97;2588716;28;20080;-88
2023/09/20 03:25:45;;;;;;;2.65;2.00;;;;;;;9.81;100.00;98237.34;2588983;28;20053;-88
2023/09/20 03:27:01;;;;;;;2.30;2.05;;;;;;;9.81;100.00;98237.34;2588898;28;20053;-88
2023/09/20 03:28:19;;;;;;;2.47;2.28;;;;;;;9.81;100.00;98237.34;2589019;28;20089;-88
2023/09/20 03:29:35;;;;;;;4.85;2.20;;;;;;;9.85;100.00;98238.13;2587932;28;20045;-88
2023/09/20 03:30:51;;;;;;;2.22;1.85;;;;;;;9.86;100.00;98237.22;2588259;28;20446;-88
2023/09/20 03:32:06;;;;;;;2.53;2.00;;;;;;;9.89;100.00;98244.97;2589186;28;20177;-88
2023/09/20 03:33:22;;;;;;;2.33;2.00;;;;;;;9.92;100.00;98238.81;2588936;28;20100;-88
2023/09/20 03:34:38;;;;;;;3.15;1.73;;;;;;;9.91;100.00;98237.09;2588848;28;20069;-88
2023/09/20 03:35:53;;;;;;;3.22;2.30;;;;;;;9.92;100.00;98238.81;2589075;28;20136;-88
2023/09/20 03:37:10;;;;;;;4.25;2.08;;;;;;;9.86;100.00;98242.44;2588870;28;20100;-88
2023/09/20 03:38:27;;;;;;;3.63;2.13;;;;;;;9.86;100.00;98240.72;2588847;28;20050;-89
2023/09/20 03:39:43;;;;;;;2.22;1.73;;;;;;;9.84;100.00;98244.25;2588791;28;20073;-88
2023/09/20 03:40:59;;;;;;;3.65;2.00;;;;;;;9.83;100.00;98239.94;2588664;28;20058;-89
2023/09/20 03:42:14;;;;;;;4.03;2.13;;;;;;;9.82;100.00;98243.44;2588951;28;20048;-88
2023/09/20 03:43:31;;;;;;;2.60;1.85;;;;;;;9.76;100.00;98234.00;2588839;28;20061;-88
2023/09/20 03:44:46;;;;;;;2.40;1.88;;;;;;;9.72;100.00;98238.47;2588586;28;20045;-88
2023/09/20 03:46:02;;;;;;;3.20;1.95;;;;;;;9.74;100.00;98230.59;2588760;28;20119;-88
2023/09/20 03:47:18;;;;;;;2.90;2.03;;;;;;;9.70;100.00;98234.16;2588667;28;20054;-87
2023/09/20 03:48:34;;;;;;;2.67;2.03;;;;;;;9.63;100.00;98227.41;2588533;28;20085;-87
2023/09/20 03:49:51;;;;;;;4.03;2.15;;;;;;;9.69;100.00;98237.69;2588897;28;20129;-87
2023/09/20 03:51:13;;;;;;;4.65;2.40;;;;;;;9.70;100.00;98228.94;2587649;28;20053;-87
2023/09/20 03:52:28;;;;;;;6.25;2.28;;;;;;;9.68;100.00;98238.59;2588286;28;20049;-88
2023/09/20 03:53:44;;;;;;;2.60;1.70;;;;;;;9.50;100.00;98235.59;2588761;28;20054;-88
2023/09/20 03:55:00;;;;;;;2.13;1.88;;;;;;;9.47;100.00;98241.75;2588637;28;20057;-89
2023/09/20 03:56:15;;;;;;;2.90;2.00;;;;;;;9.43;100.00;98240.13;2588951;28;20446;-88
2023/09/20 03:57:31;;;;;;;2.33;2.00;;;;;;;9.43;100.00;98239.28;2588798;28;20081;-88
2023/09/20 03:58:47;;;;;;;4.30;2.22;;;;;;;9.41;100.00;98238.44;2588777;28;20085;-88
2023/09/20 04:00:07;;;;;;;2.63;1.92;;;;;;;9.44;100.00;98243.59;2588383;28;20049;-88
2023/09/20 04:01:23;;;;;;;2.10;1.88;;;;;;;9.49;100.00;98243.44;2588659;28;20141;-88
2023/09/20 04:02:39;;;;;;;3.78;2.00;;;;;;;9.55;100.00;98243.31;2588706;28;20054;-87
2023/09/20 04:03:55;;;;;;;2.55;1.95;;;;;;;9.57;100.00;98244.13;2588845;28;20535;-87
2023/09/20 04:05:13;;;;;;;2.30;1.80;;;;;;;9.55;100.00;98241.53;2588265;28;20160;-88
2023/09/20 04:06:29;;;;;;;2.83;1.90;;;;;;;9.63;100.00;98241.31;2588749;28;20165;-88
2023/09/20 04:07:47;;;;;;;2.53;1.92;;;;;;;9.69;100.00;98243.78;2588282;28;20105;-88
2023/09/20 04:09:09;;;;;;;3.30;1.83;;;;;;;9.79;100.00;98243.53;2588502;28;20054;-87
2023/09/20 04:10:26;;;;;;;2.90;1.75;;;;;;;9.85;100.00;98243.34;2588357;28;20539;-87
2023/09/20 04:11:42;;;;;;;2.47;1.90;;;;;;;9.88;100.00;98248.50;2588597;28;20485;-87
2023/09/20 04:12:57;;;;;;;2.20;1.70;;;;;;;9.89;100.00;98248.44;2588665;28;20355;-87
2023/09/20 04:14:13;;;;;;;2.35;1.55;;;;;;;9.84;100.00;98249.47;2588492;28;20494;-87
2023/09/20 04:15:29;;;;;;;6.05;1.90;;;;;;;9.83;100.00;98250.38;2588389;28;20449;-87
2023/09/20 04:16:44;;;;;;;2.50;1.70;;;;;;;9.81;100.00;98252.19;2588579;28;20425;-87
2023/09/20 04:18:02;;;;;;;2.92;1.90;;;;;;;9.75;100.00;98253.22;2588353;28;20050;-87
2023/09/20 04:19:18;;;;;;;4.05;2.00;;;;;;;9.71;100.00;98244.59;2588838;28;20050;-87
2023/09/20 04:20:35;;;;;;;3.70;1.80;;;;;;;9.71;100.00;98252.44;2588683;28;20578;-88
2023/09/20 04:21:50;;;;;;;3.15;2.08;;;;;;;9.74;100.00;98246.28;2588469;28;20049;-88
2023/09/20 04:23:06;;;;;;;3.40;2.08;;;;;;;9.71;100.00;98252.44;2588682;28;20413;-87
2023/09/20 04:24:21;;;;;;;3.50;1.88;;;;;;;9.73;100.00;98249.78;2588549;28;20042;-87
2023/09/20 04:25:37;;;;;;;5.72;2.00;;;;;;;9.71;100.00;98244.59;2587432;28;20578;-88
2023/09/20 04:26:53;;;;;;;2.13;1.77;;;;;;;9.73;100.00;98248.00;2588221;28;20054;-88
2023/09/20 04:28:09;;;;;;;2.78;1.90;;;;;;;9.77;100.00;98250.53;2588202;28;20065;-87
2023/09/20 04:29:26;;;;;;;3.22;1.95;;;;;;;9.75;100.00;98251.44;2588182;28;20053;-87
2023/09/20 04:30:41;;;;;;;3.03;2.25;;;;;;;9.70;100.00;98255.94;2587367;28;20559;-87
2023/09/20 04:31:57;;;;;;;4.55;2.10;;;;;;;9.70;100.00;98250.72;2586668;28;20054;-87
2023/09/20 04:33:13;;;;;;;3.55;1.88;;;;;;;9.69;100.00;98248.13;2587386;28;20073;-87
2023/09/20 04:34:29;;;;;;;3.63;2.08;;;;;;;9.72;100.00;98251.53;2588330;28;20421;-88
2023/09/20 04:35:47;;;;;;;2.67;2.00;;;;;;;9.73;100.00;98263.69;2588090;28;20073;-88
2023/09/20 04:37:03;;;;;;;3.92;2.33;;;;;;;9.66;100.00;98258.69;2588361;28;20045;-89
2023/09/20 04:38:18;;;;;;;2.60;2.08;;;;;;;9.67;100.00;98263.00;2588177;28;20072;-87
2023/09/20 04:39:36;;;;;;;3.33;2.10;;;;;;;9.67;100.00;98261.28;2587847;28;20048;-88
2023/09/20 04:40:52;;;;;;;2.80;2.00;;;;;;;9.68;100.00;98259.50;2587580;28;20073;-87
2023/09/20 04:42:09;;;;;;;3.38;1.90;;;;;;;9.60;100.00;98257.09;2587076;28;20422;-87
2023/09/20 04:43:25;;;;;;;3.17;2.10;;;;;;;9.63;100.00;98259.63;2587174;28;20073;-88
2023/09/20 04:44:41;;;;;;;2.47;1.60;;;;;;;9.70;100.00;98265.53;2587041;28;20152;-89
2023/09/20 04:45:57;;;;;;;3.05;2.00;;;;;;;9.68;100.00;98257.75;2586829;28;20149;-87
2023/09/20 04:47:14;;;;;;;2.28;1.85;;;;;;;9.70;100.00;98261.19;2607799;28;20045;-88
2023/09/20 04:48:30;;;;;;;2.22;1.63;;;;;;;9.71;100.00;98259.44;2597961;28;20053;-88
2023/09/20 04:49:46;;;;;;;3.47;1.92;;;;;;;9.73;100.00;98253.25;2586335;28;20049;-87
2023/09/20 04:51:02;;;;;;;3.50;1.80;;;;;;;9.66;100.00;98262.16;2586001;28;20053;-88
2023/09/20 04:52:18;;;;;;;2.33;1.70;;;;;;;9.63;100.00;98264.00;2587137;28;20050;-88
2023/09/20 04:53:34;;;;;;;3.22;1.58;;;;;;;9.66;100.00;98258.69;2587092;28;20049;-89
2023/09/20 04:54:52;;;;;;;2.30;1.75;;;;;;;9.69;100.00;98261.22;2587602;28;20052;-89
2023/09/20 04:56:09;;;;;;;3.08;1.77;;;;;;;9.72;100.00;98264.59;2587500;28;20053;-86
2023/09/20 04:57:25;;;;;;;2.10;1.75;;;;;;;9.74;100.00;98270.66;2587497;28;20096;-90
2023/09/20 04:58:41;;;;;;;1.92;1.70;;;;;;;9.75;100.00;98269.75;2587967;28;20460;-88
2023/09/20 04:59:56;;;;;;;3.08;1.65;;;;;;;9.74;100.00;98270.66;2587898;28;20093;-88
2023/09/20 05:01:13;;;;;;;1.85;1.60;;;;;;;9.78;100.00;98263.59;2588383;28;20185;-88
2023/09/20 05:02:29;;;;;;;2.35;1.70;;;;;;;9.75;100.00;98253.22;2588349;28;20246;-88
2023/09/20 05:03:45;;;;;;;4.18;1.50;;;;;;;9.81;100.00;98262.66;2588392;28;20069;-89
2023/09/20 05:05:00;;;;;;;1.77;1.45;;;;;;;9.84;100.00;98263.41;2587991;28;20073;-87
2023/09/20 05:06:17;;;;;;;5.20;1.65;;;;;;;9.89;100.00;98260.66;2588437;28;20517;-87
2023/09/20 05:07:34;;;;;;;3.10;1.40;;;;;;;9.90;100.00;98262.38;2588077;28;20069;-87
2023/09/20 05:08:50;;;;;;;2.90;1.50;;;;;;;9.92;100.00;98263.22;2588007;28;20095;-86
2023/09/20 05:10:06;;;;;;;1.85;1.35;;;;;;;9.91;100.00;98258.84;2587358;28;20092;-86
2023/09/20 05:11:22;;;;;;;2.33;1.50;;;;;;;9.92;100.00;98260.59;2587451;28;20136;-86
2023/09/20 05:12:38;;;;;;;1.98;1.33;;;;;;;9.92;100.00;98260.59;2587307;28;20046;-86
2023/09/20 05:13:53;;;;;;;2.10;1.70;;;;;;;9.85;100.00;98256.44;2587704;28;20057;-86
2023/09/20 05:15:12;;;;;;;2.25;1.42;;;;;;;9.82;100.00;98253.91;2588080;28;20049;-86
2023/09/20 05:16:28;;;;;;;2.60;1.52;;;;;;;9.97;100.00;98261.31;2588073;28;20073;-86
2023/09/20 05:17:45;;;;;;;3.25;1.67;;;;;;;10.04;100.00;98262.84;2588132;28;20050;-86
2023/09/20 05:19:01;;;;;;;1.90;1.70;;;;;;;10.04;100.00;98262.00;2587955;28;20038;-86
2023/09/20 05:20:16;;;;;;;2.50;1.50;;;;;;;10.09;100.00;98267.94;2588297;28;20049;-86
2023/09/20 05:21:32;;;;;;;3.55;1.95;;;;;;;10.16;100.00;98266.00;2587885;28;20069;-86
2023/09/20 05:22:48;;;;;;;2.92;1.92;;;;;;;10.38;100.00;98260.16;2587327;28;20053;-86
2023/09/20 05:24:04;;;;;;;2.22;1.90;;;;;;;10.38;100.00;98262.75;2587176;28;20486;-86
2023/09/20 05:25:19;;;;;;;3.50;2.00;;;;;;;10.35;100.00;98270.72;2586977;28;20172;-86
2023/09/20 05:26:36;;;;;;;3.97;2.13;;;;;;;10.34;100.00;98264.59;2587489;28;20485;-86
2023/09/20 05:27:54;;;;;;;2.70;2.10;;;;;;;10.38;100.00;98268.00;2588135;28;20512;-86
2023/09/20 05:29:10;;;;;;;2.17;1.80;;;;;;;10.40;100.00;98268.81;2587914;28;20084;-86
2023/09/20 05:30:26;;;;;;;3.05;2.17;;;;;;;10.40;100.00;98267.03;2588423;28;20529;-86
2023/09/20 05:31:42;;;;;;;3.03;2.03;;;;;;;10.39;100.00;98267.94;2587777;28;20457;-86
2023/09/20 05:32:59;;;;;;;2.95;2.15;;;;;;;10.40;100.00;98264.41;2588085;28;20045;-86
2023/09/20 05:34:14;;;;;;;2.55;1.90;;;;;;;10.40;100.00;98267.03;2588267;28;20042;-86
2023/09/20 05:35:30;;;;;;;5.93;2.30;;;;;;;10.42;100.00;98264.41;2588103;28;20049;-86
2023/09/20 05:36:51;;;;;;;3.13;2.13;;;;;;;10.44;100.00;98267.84;2587966;28;20764;-88
2023/09/20 05:38:10;;;;;;;5.07;2.22;;;;;;;10.45;100.00;98270.41;2588104;28;20114;-86
2023/09/20 05:39:26;;;;;;;5.95;2.63;;;;;;;10.48;100.00;98273.84;2587630;28;20538;-87
2023/09/20 05:40:43;;;;;;;2.90;2.13;;;;;;;10.51;100.00;98268.50;2587748;28;20082;-87
2023/09/20 05:41:59;;;;;;;6.05;2.65;;;;;;;10.50;100.00;98272.91;2586850;28;20140;-86
2023/09/20 05:43:16;;;;;;;4.82;2.28;;;;;;;10.52;100.00;98268.47;2587236;28;20052;-87
2023/09/20 05:44:32;;;;;;;3.03;2.25;;;;;;;10.54;100.00;98271.88;2587711;28;20049;-88
2023/09/20 05:45:47;;;;;;;4.68;2.40;;;;;;;10.55;100.00;98268.38;2587733;28;20057;-87
2023/09/20 05:47:05;;;;;;;4.28;2.67;;;;;;;10.55;100.00;98265.75;2587953;28;20046;-87
2023/09/20 05:48:20;;;;;;;4.18;2.50;;;;;;;10.57;100.00;98279.66;2588113;28;20050;-87
2023/09/20 05:49:36;;;;;;;3.35;2.40;;;;;;;10.60;100.00;98273.47;2587546;28;20148;-90
2023/09/20 05:50:54;;;;;;;3.10;2.40;;;;;;;10.65;100.00;98282.03;2587769;28;20054;-88
2023/09/20 05:52:09;;;;;;;4.13;2.55;;;;;;;10.64;100.00;98276.84;2588158;28;20046;-88
2023/09/20 05:53:25;;;;;;;3.47;2.45;;;;;;;10.68;100.00;98275.84;2587675;28;20045;-86
2023/09/20 05:54:43;;;;;;;5.28;2.58;;;;;;;10.74;100.00;98273.03;2588102;28;20049;-88
2023/09/20 05:56:08;;;;;;;3.92;2.70;;;;;;;10.80;100.00;98274.59;2587742;28;20129;-88
2023/09/20 05:57:27;;;;;;;5.35;2.42;;;;;;;10.85;100.00;98265.69;2607789;28;20546;-88
2023/09/20 05:58:42;;;;;;;3.28;2.03;;;;;;;10.80;100.00;98271.97;2598636;28;20544;-87